createdAt,value
2022-08-02T00:02:09.968Z,17.75
2022-08-02T00:07:12.069Z,17.69
2022-08-02T00:12:14.160Z,17.44
2022-08-02T00:17:15.964Z,17.27
2022-08-02T00:22:17.647Z,17.27
2022-08-02T00:27:19.308Z,17.26
2022-08-02T00:32:24.433Z,17.42
2022-08-02T00:37:26.138Z,17.37
2022-08-02T00:42:27.848Z,17.35
2022-08-02T00:47:29.572Z,17.17
2022-08-02T00:52:31.293Z,16.84
2022-08-02T00:57:33.027Z,16.81
2022-08-02T01:02:34.712Z,16.93
2022-08-02T01:07:36.390Z,16.79
2022-08-02T01:12:38.069Z,16.62
2022-08-02T01:18:04.389Z,16.53
2022-08-02T01:23:05.978Z,16.68
2022-08-02T01:28:35.071Z,16.42
2022-08-02T01:33:44.029Z,16.25
2022-08-02T01:38:49.800Z,16.17
2022-08-02T01:43:56.869Z,16.26
2022-08-02T01:49:01.918Z,16.33
2022-08-02T01:54:04.124Z,16.38
2022-08-02T01:59:08.408Z,16.45
2022-08-02T02:04:11.952Z,16.45
2022-08-02T02:09:15.810Z,16.35
2022-08-02T02:14:19.200Z,16.28
2022-08-02T02:19:22.809Z,16.26
2022-08-02T02:24:24.665Z,15.88
2022-08-02T02:29:29.892Z,15.93
2022-08-02T02:34:37.843Z,15.99
2022-08-02T02:39:42.106Z,16.08
2022-08-02T02:44:46.250Z,16.00
2022-08-02T02:49:49.213Z,15.55
2022-08-02T02:54:51.867Z,15.83
2022-08-02T02:59:54.947Z,15.63
2022-08-02T03:04:58.367Z,15.31
2022-08-02T03:10:01.024Z,15.66
2022-08-02T03:15:06.557Z,15.64
2022-08-02T03:20:20.077Z,15.29
2022-08-02T03:25:21.725Z,15.49
2022-08-02T03:30:26.961Z,15.43
2022-08-02T03:35:28.712Z,15.61
2022-08-02T03:40:31.522Z,15.49
2022-08-02T03:45:33.945Z,15.34
2022-08-02T03:50:37.482Z,15.52
2022-08-02T03:55:40.356Z,15.35
2022-08-02T04:00:42.131Z,15.58
2022-08-02T04:06:01.030Z,15.65
2022-08-02T04:11:25.313Z,16.08
2022-08-02T04:16:50.276Z,15.99
2022-08-02T04:21:54.018Z,16.04
2022-08-02T04:27:19.360Z,16.17
2022-08-02T04:32:21.017Z,15.81
2022-08-02T04:37:22.785Z,16.22
2022-08-02T04:42:26.333Z,16.65
2022-08-02T04:48:02.300Z,16.81
2022-08-02T04:52:49.776Z,17.15
2022-08-02T04:57:57.946Z,17.31
2022-08-02T05:03:00.566Z,17.46
2022-08-02T05:08:02.583Z,17.76
2022-08-02T05:13:05.718Z,17.97
2022-08-02T05:18:07.465Z,17.97
2022-08-02T05:23:09.145Z,18.08
2022-08-02T05:28:11.725Z,18.12
2022-08-02T05:33:13.669Z,18.35
2022-08-02T05:38:15.348Z,18.53
2022-08-02T05:43:17.435Z,18.65
2022-08-02T05:48:19.224Z,19.09
2022-08-02T05:53:36.168Z,19.27
2022-08-02T05:58:53.502Z,19.71
2022-08-02T06:03:58.284Z,19.64
2022-08-02T06:09:04.022Z,19.47
2022-08-02T06:14:07.457Z,20.43
2022-08-02T06:19:09.494Z,21.42
2022-08-02T06:24:13.130Z,22.25
2022-08-02T06:29:15.409Z,22.25
2022-08-02T06:34:17.092Z,22.30
2022-08-02T06:39:28.239Z,22.64
2022-08-02T06:44:47.951Z,21.49
2022-08-02T06:49:54.698Z,23.00
2022-08-02T06:55:01.328Z,23.69
2022-08-02T07:00:08.677Z,22.56
2022-08-02T07:05:10.693Z,23.32
2022-08-02T07:10:14.582Z,25.23
2022-08-02T07:15:18.371Z,25.13
2022-08-02T07:20:20.992Z,25.07
2022-08-02T07:25:22.885Z,24.60
2022-08-02T07:30:24.859Z,25.04
2022-08-02T07:35:26.913Z,25.20
2022-08-02T07:40:32.063Z,26.24
2022-08-02T07:45:35.743Z,28.52
2022-08-02T07:50:38.073Z,30.68
2022-08-02T07:55:40.765Z,28.85
2022-08-02T08:00:43.778Z,28.31
2022-08-02T08:05:45.519Z,29.97
2022-08-02T08:10:47.883Z,30.65
2022-08-02T08:15:51.494Z,33.70
2022-08-02T08:20:54.303Z,34.19
2022-08-02T08:25:56.867Z,36.27
2022-08-02T08:30:58.782Z,35.26
2022-08-02T08:36:02.506Z,35.10
2022-08-02T08:41:04.533Z,35.99
2022-08-02T08:46:22.913Z,36.66
2022-08-02T08:51:26.027Z,36.11
2022-08-02T08:56:34.896Z,31.46
2022-08-02T09:01:50.251Z,35.24
2022-08-02T09:06:52.646Z,36.06
2022-08-02T09:11:54.426Z,34.71
2022-08-02T09:17:08.331Z,35.20
2022-08-02T09:22:12.045Z,30.13
2022-08-02T09:27:18.876Z,31.09
2022-08-02T09:32:21.091Z,30.86
2022-08-02T09:37:30.376Z,32.43
2022-08-02T09:42:32.065Z,34.95
2022-08-02T09:47:37.459Z,36.99
2022-08-02T09:52:43.463Z,35.75
2022-08-02T09:57:50.298Z,36.14
2022-08-02T10:03:07.873Z,37.64
2022-08-02T10:08:09.916Z,36.54
2022-08-02T10:13:12.067Z,37.95
2022-08-02T10:18:37.780Z,36.90
2022-08-02T10:23:43.468Z,32.76
2022-08-02T10:28:50.048Z,30.53
2022-08-02T10:33:54.179Z,35.87
2022-08-02T10:38:58.752Z,36.53
2022-08-02T10:44:01.092Z,34.26
2022-08-02T10:54:39.913Z,34.50
2022-08-02T10:59:41.815Z,34.72
2022-08-02T11:04:43.547Z,31.14
2022-08-02T11:09:47.703Z,33.16
2022-08-02T11:14:59.489Z,34.66
2022-08-02T11:20:13.009Z,34.07
2022-08-02T11:25:23.863Z,33.78
2022-08-02T11:30:27.238Z,32.90
2022-08-02T11:35:34.045Z,30.99
2022-08-02T11:40:38.670Z,29.54
2022-08-02T11:45:40.420Z,30.15
2022-08-02T11:50:42.112Z,29.35
2022-08-02T11:55:43.834Z,30.50
2022-08-02T12:00:47.114Z,29.61
2022-08-02T12:06:04.931Z,29.86
2022-08-02T12:11:07.973Z,28.24
2022-08-02T12:16:30.566Z,29.36
2022-08-02T12:21:32.275Z,29.66
2022-08-02T12:26:47.395Z,29.41
2022-08-02T12:31:57.137Z,32.44
2022-08-02T12:37:09.631Z,34.97
2022-08-02T12:42:14.148Z,32.93
2022-08-02T12:47:16.223Z,30.05
2022-08-02T12:52:22.312Z,30.46
2022-08-02T12:57:25.218Z,32.13
2022-08-02T13:02:26.949Z,33.53
2022-08-02T13:07:28.687Z,33.71
2022-08-02T13:12:30.340Z,35.40
2022-08-02T13:17:32.021Z,35.21
2022-08-02T13:22:33.853Z,33.25
2022-08-02T13:27:36.643Z,32.46
2022-08-02T13:32:38.289Z,33.48
2022-08-02T13:37:41.949Z,33.77
2022-08-02T13:42:43.876Z,32.74
2022-08-02T13:48:04.634Z,30.95
2022-08-02T13:53:07.204Z,30.11
2022-08-02T13:58:09.767Z,29.39
2022-08-02T14:03:12.113Z,29.01
2022-08-02T14:08:16.702Z,29.24
2022-08-02T14:13:19.666Z,29.89
2022-08-02T14:18:22.551Z,31.52
2022-08-02T14:23:50.703Z,31.26
2022-08-02T14:28:45.998Z,30.33
2022-08-02T14:33:51.640Z,31.48
2022-08-02T14:38:53.340Z,31.73
2022-08-02T14:44:04.218Z,32.07
2022-08-02T14:49:07.844Z,32.13
2022-08-02T14:54:11.677Z,30.96
2022-08-02T14:59:13.664Z,30.30
2022-08-02T15:04:15.505Z,30.87
2022-08-02T15:09:17.385Z,30.96
2022-08-02T15:14:25.310Z,30.49
2022-08-02T15:19:56.973Z,30.55
2022-08-02T15:24:50.485Z,31.09
2022-08-02T15:29:52.361Z,31.12
2022-08-02T15:34:53.989Z,30.59
2022-08-02T15:39:55.709Z,30.41
2022-08-02T15:44:57.439Z,29.20
2022-08-02T15:49:59.099Z,30.33
2022-08-02T15:55:07.435Z,30.93
2022-08-02T16:00:14.074Z,30.97
2022-08-02T16:05:21.667Z,31.28
2022-08-02T16:10:23.522Z,31.39
2022-08-02T16:15:25.181Z,31.20
2022-08-02T16:20:26.815Z,31.17
2022-08-02T16:25:28.582Z,30.76
2022-08-02T16:30:30.297Z,30.99
2022-08-02T16:35:32.135Z,30.45
2022-08-02T16:40:34.504Z,30.58
2022-08-02T16:45:36.513Z,30.61
2022-08-02T16:50:38.454Z,30.39
2022-08-02T16:55:40.162Z,30.72
2022-08-02T17:00:53.722Z,30.41
2022-08-02T17:05:56.736Z,30.11
2022-08-02T17:10:59.009Z,29.70
2022-08-02T17:16:25.964Z,29.47
2022-08-02T17:21:28.326Z,29.18
2022-08-02T17:26:30.181Z,28.91
2022-08-02T17:36:54.223Z,28.56
2022-08-02T17:41:56.812Z,28.41
2022-08-02T17:46:59.403Z,28.37
2022-08-02T17:52:48.101Z,28.26
2022-08-02T17:57:23.617Z,28.30
2022-08-02T18:02:52.626Z,28.17
2022-08-02T18:08:07.259Z,28.03
2022-08-02T18:13:09.067Z,27.63
2022-08-02T18:18:10.857Z,27.43
2022-08-02T18:23:14.143Z,27.28
2022-08-02T18:28:15.850Z,27.09
2022-08-02T18:33:57.911Z,26.83
2022-08-02T18:38:39.963Z,26.56
2022-08-02T18:43:47.388Z,26.53
2022-08-02T18:48:49.718Z,26.00
2022-08-02T18:53:53.342Z,25.60
2022-08-02T18:58:56.189Z,25.22
2022-08-02T19:03:58.759Z,25.17
2022-08-02T19:09:12.589Z,24.82
2022-08-02T19:14:19.185Z,24.56
2022-08-02T19:19:29.556Z,24.56
2022-08-02T19:24:31.262Z,24.44
2022-08-02T19:29:42.766Z,24.27
2022-08-02T19:34:50.837Z,23.96
2022-08-02T19:39:52.566Z,23.83
2022-08-02T19:44:54.780Z,23.74
2022-08-02T19:49:57.844Z,23.68
2022-08-02T19:55:58.372Z,23.30
2022-08-02T20:00:21.704Z,23.07
2022-08-02T20:10:26.609Z,22.76
2022-08-02T20:15:55.994Z,22.50
2022-08-02T20:20:50.786Z,22.42
2022-08-02T20:25:54.440Z,22.48
2022-08-02T20:30:56.186Z,22.19
2022-08-02T20:35:57.858Z,22.12
2022-08-02T20:40:59.911Z,22.06
2022-08-02T20:46:01.664Z,21.94
2022-08-02T20:51:09.767Z,21.99
2022-08-02T20:56:14.125Z,22.01
2022-08-02T21:01:15.964Z,21.81
2022-08-02T21:06:17.627Z,21.90
2022-08-02T21:11:25.589Z,21.91
2022-08-02T21:16:35.584Z,21.63
2022-08-02T21:21:37.970Z,21.64
2022-08-02T21:26:39.605Z,21.61
2022-08-02T21:31:41.951Z,21.27
2022-08-02T21:36:45.106Z,21.21
2022-08-02T21:41:47.476Z,21.21
2022-08-02T21:46:51.983Z,21.09
2022-08-02T21:51:54.668Z,20.89
2022-08-02T21:56:56.337Z,20.72
2022-08-02T22:01:58.316Z,20.58
2022-08-02T22:07:00.228Z,20.76
2022-08-02T22:12:02.227Z,20.62
2022-08-02T22:17:08.837Z,20.64
2022-08-02T22:22:11.221Z,20.37
2022-08-02T22:27:13.752Z,20.27
2022-08-02T22:32:35.440Z,20.25
2022-08-02T22:38:17.418Z,20.09
2022-08-02T22:43:00.930Z,20.08
2022-08-02T22:48:03.711Z,19.89
2022-08-02T22:53:05.405Z,19.69
2022-08-02T22:58:07.119Z,19.79
2022-08-02T22:58:38.929Z,28.64
2022-08-02T23:03:08.815Z,19.71
2022-08-02T23:08:10.514Z,19.78
2022-08-02T23:13:12.266Z,19.74
2022-08-02T23:18:32.624Z,19.47
2022-08-02T23:23:34.276Z,19.61
2022-08-02T23:28:36.147Z,19.34
2022-08-02T23:33:37.788Z,19.32
2022-08-02T23:39:00.237Z,19.11
2022-08-02T23:44:15.843Z,18.94
2022-08-02T23:49:18.230Z,19.09
2022-08-02T23:54:20.584Z,18.83
2022-08-02T23:59:22.267Z,18.90
